Terminal Aerodrome Forecast
Issued by NWS Charleston, WV

Home | Current Version | Previous Version | Text Only | Print | Product List | Glossary On
Versions: 1 2 3 4 5 6 7 8 9 10 11 12 13 14 15 16 17 18 19 20 21 22 23 24 25 26 27 28 29 30 31 32 33 34 35 36 37 38 39 40 41 42 43 44 45 46 47 48 49 50
000
FTUS41 KRLX 200549
TAFCRW
TAF
KCRW 200549Z 2006/2106 20005KT 6SM BR BKN040
      TEMPO 2008/2012 4SM -SHRA BR OVC025
     FM201200 21006KT P6SM VCTS BKN060CB
     FM201500 23012G21KT P6SM VCTS BKN035CB
     FM201800 24013G23KT P6SM SHRA BKN035
     FM210000 26011G18KT 6SM -SHRA BR OVC025
     FM210200 27010G16KT P6SM -SHRA OVC015=

USA.gov is the U.S. government's official web portal to all federal, state and local government web resources and services.